sensor_id;sensor_type;location;lat;lon;timestamp;temperature;humidity
2621;DHT22;1320;48.128;11.592;2022-12-07T00:01:17;6.00;99.90
2621;DHT22;1320;48.128;11.592;2022-12-07T00:03:44;6.00;99.90
2621;DHT22;1320;48.128;11.592;2022-12-07T00:06:11;6.00;99.90
2621;DHT22;1320;48.128;11.592;2022-12-07T00:08:38;6.00;99.90
2621;DHT22;1320;48.128;11.592;2022-12-07T00:11:06;6.00;99.90
2621;DHT22;1320;48.128;11.592;2022-12-07T00:13:32;6.00;99.90
2621;DHT22;1320;48.128;11.592;2022-12-07T00:16:10;6.00;99.90
2621;DHT22;1320;48.128;11.592;2022-12-07T00:18:37;5.90;99.90
2621;DHT22;1320;48.128;11.592;2022-12-07T00:21:11;5.90;99.90
2621;DHT22;1320;48.128;11.592;2022-12-07T00:23:38;5.90;99.90
2621;DHT22;1320;48.128;11.592;2022-12-07T00:26:05;5.80;99.90
2621;DHT22;1320;48.128;11.592;2022-12-07T00:28:31;5.80;99.90
2621;DHT22;1320;48.128;11.592;2022-12-07T00:31:05;5.80;99.90
2621;DHT22;1320;48.128;11.592;2022-12-07T00:33:32;5.80;99.90
2621;DHT22;1320;48.128;11.592;2022-12-07T00:35:59;5.80;99.90
2621;DHT22;1320;48.128;11.592;2022-12-07T00:38:26;5.80;99.90
2621;DHT22;1320;48.128;11.592;2022-12-07T00:41:03;5.80;99.90
2621;DHT22;1320;48.128;11.592;2022-12-07T00:43:29;5.80;99.90
2621;DHT22;1320;48.128;11.592;2022-12-07T00:45:55;5.80;99.90
2621;DHT22;1320;48.128;11.592;2022-12-07T00:48:22;5.80;99.90
2621;DHT22;1320;48.128;11.592;2022-12-07T00:50:48;5.80;99.90
2621;DHT22;1320;48.128;11.592;2022-12-07T00:53:14;5.80;99.90
2621;DHT22;1320;48.128;11.592;2022-12-07T00:55:40;5.80;99.90
2621;DHT22;1320;48.128;11.592;2022-12-07T00:58:06;5.80;99.90
2621;DHT22;1320;48.128;11.592;2022-12-07T01:00:32;5.70;99.90
2621;DHT22;1320;48.128;11.592;2022-12-07T01:02:59;5.70;99.90
2621;DHT22;1320;48.128;11.592;2022-12-07T01:05:24;5.70;99.90
2621;DHT22;1320;48.128;11.592;2022-12-07T01:07:50;5.80;99.90
2621;DHT22;1320;48.128;11.592;2022-12-07T01:10:15;5.70;99.90
2621;DHT22;1320;48.128;11.592;2022-12-07T01:12:41;5.70;99.90
2621;DHT22;1320;48.128;11.592;2022-12-07T01:15:07;5.70;99.90
2621;DHT22;1320;48.128;11.592;2022-12-07T01:17:34;5.70;99.90
2621;DHT22;1320;48.128;11.592;2022-12-07T01:20:00;5.70;99.90
2621;DHT22;1320;48.128;11.592;2022-12-07T01:22:26;5.70;99.90
2621;DHT22;1320;48.128;11.592;2022-12-07T01:24:52;5.70;99.90
2621;DHT22;1320;48.128;11.592;2022-12-07T01:27:17;5.70;99.90
2621;DHT22;1320;48.128;11.592;2022-12-07T01:29:43;5.70;99.90
2621;DHT22;1320;48.128;11.592;2022-12-07T01:32:09;5.70;99.90
2621;DHT22;1320;48.128;11.592;2022-12-07T01:34:34;5.70;99.90
2621;DHT22;1320;48.128;11.592;2022-12-07T01:37:00;5.70;99.90
2621;DHT22;1320;48.128;11.592;2022-12-07T01:39:25;5.70;99.90
2621;DHT22;1320;48.128;11.592;2022-12-07T01:41:52;5.70;99.90
2621;DHT22;1320;48.128;11.592;2022-12-07T01:44:29;5.70;99.90
2621;DHT22;1320;48.128;11.592;2022-12-07T01:46:58;5.70;99.90
2621;DHT22;1320;48.128;11.592;2022-12-07T01:49:40;5.70;99.90
2621;DHT22;1320;48.128;11.592;2022-12-07T01:52:22;5.60;99.90
2621;DHT22;1320;48.128;11.592;2022-12-07T01:54:52;5.60;99.90
2621;DHT22;1320;48.128;11.592;2022-12-07T01:57:19;5.60;99.90
2621;DHT22;1320;48.128;11.592;2022-12-07T01:59:48;5.50;99.90
2621;DHT22;1320;48.128;11.592;2022-12-07T02:02:24;5.50;99.90
2621;DHT22;1320;48.128;11.592;2022-12-07T02:04:53;5.50;99.90
2621;DHT22;1320;48.128;11.592;2022-12-07T02:07:20;5.50;99.90
2621;DHT22;1320;48.128;11.592;2022-12-07T02:09:46;5.50;99.90
2621;DHT22;1320;48.128;11.592;2022-12-07T02:12:12;5.50;99.90
2621;DHT22;1320;48.128;11.592;2022-12-07T02:14:38;5.50;99.90
2621;DHT22;1320;48.128;11.592;2022-12-07T02:17:19;5.50;99.90
2621;DHT22;1320;48.128;11.592;2022-12-07T02:28:36;5.50;99.90
2621;DHT22;1320;48.128;11.592;2022-12-07T02:31:10;5.40;99.90
2621;DHT22;1320;48.128;11.592;2022-12-07T02:33:46;5.40;99.90
2621;DHT22;1320;48.128;11.592;2022-12-07T02:36:29;5.40;99.90
2621;DHT22;1320;48.128;11.592;2022-12-07T02:39:09;5.50;99.90
2621;DHT22;1320;48.128;11.592;2022-12-07T02:41:46;5.50;99.90
2621;DHT22;1320;48.128;11.592;2022-12-07T02:44:19;5.50;99.90
2621;DHT22;1320;48.128;11.592;2022-12-07T02:46:58;5.40;99.90
2621;DHT22;1320;48.128;11.592;2022-12-07T02:49:27;5.40;99.90
2621;DHT22;1320;48.128;11.592;2022-12-07T02:51:53;5.30;99.90
2621;DHT22;1320;48.128;11.592;2022-12-07T02:54:20;5.30;99.90
2621;DHT22;1320;48.128;11.592;2022-12-07T02:57:38;5.30;99.90
2621;DHT22;1320;48.128;11.592;2022-12-07T03:00:00;5.30;99.90
2621;DHT22;1320;48.128;11.592;2022-12-07T03:05:25;5.40;99.90
2621;DHT22;1320;48.128;11.592;2022-12-07T03:10:28;5.30;99.90
2621;DHT22;1320;48.128;11.592;2022-12-07T03:15:43;5.40;99.90
2621;DHT22;1320;48.128;11.592;2022-12-07T03:18:11;5.40;99.90
2621;DHT22;1320;48.128;11.592;2022-12-07T03:20:39;5.40;99.90
2621;DHT22;1320;48.128;11.592;2022-12-07T03:23:08;5.40;99.90
2621;DHT22;1320;48.128;11.592;2022-12-07T03:25:39;5.40;99.90
2621;DHT22;1320;48.128;11.592;2022-12-07T03:28:07;5.50;99.90
2621;DHT22;1320;48.128;11.592;2022-12-07T03:30:46;5.40;99.90
2621;DHT22;1320;48.128;11.592;2022-12-07T03:33:21;5.50;99.90
2621;DHT22;1320;48.128;11.592;2022-12-07T03:38:32;5.50;99.90
2621;DHT22;1320;48.128;11.592;2022-12-07T03:43:34;5.50;99.90
2621;DHT22;1320;48.128;11.592;2022-12-07T03:46:42;5.50;99.90
2621;DHT22;1320;48.128;11.592;2022-12-07T03:52:08;5.50;99.90
2621;DHT22;1320;48.128;11.592;2022-12-07T03:54:40;5.50;99.90
2621;DHT22;1320;48.128;11.592;2022-12-07T03:57:10;5.50;99.90
2621;DHT22;1320;48.128;11.592;2022-12-07T03:59:37;5.60;99.90
2621;DHT22;1320;48.128;11.592;2022-12-07T04:02:06;5.60;99.90
2621;DHT22;1320;48.128;11.592;2022-12-07T04:04:33;5.60;99.90
2621;DHT22;1320;48.128;11.592;2022-12-07T04:06:59;5.60;99.90
2621;DHT22;1320;48.128;11.592;2022-12-07T04:09:25;5.60;99.90
2621;DHT22;1320;48.128;11.592;2022-12-07T04:11:51;5.60;99.90
2621;DHT22;1320;48.128;11.592;2022-12-07T04:14:17;5.60;99.90
2621;DHT22;1320;48.128;11.592;2022-12-07T04:19:15;5.70;99.90
2621;DHT22;1320;48.128;11.592;2022-12-07T04:21:41;5.70;99.90
2621;DHT22;1320;48.128;11.592;2022-12-07T04:24:07;5.70;99.90
2621;DHT22;1320;48.128;11.592;2022-12-07T04:26:32;5.70;99.90
2621;DHT22;1320;48.128;11.592;2022-12-07T04:28:58;5.70;99.90
2621;DHT22;1320;48.128;11.592;2022-12-07T04:31:24;5.70;99.90
2621;DHT22;1320;48.128;11.592;2022-12-07T04:33:49;5.60;99.90
2621;DHT22;1320;48.128;11.592;2022-12-07T04:36:15;5.50;99.90
2621;DHT22;1320;48.128;11.592;2022-12-07T04:38:41;5.50;99.90
2621;DHT22;1320;48.128;11.592;2022-12-07T04:41:08;5.50;99.90
2621;DHT22;1320;48.128;11.592;2022-12-07T04:43:34;5.50;99.90
2621;DHT22;1320;48.128;11.592;2022-12-07T04:46:00;5.40;99.90
2621;DHT22;1320;48.128;11.592;2022-12-07T04:48:26;5.40;99.90
2621;DHT22;1320;48.128;11.592;2022-12-07T04:50:52;5.40;99.90
2621;DHT22;1320;48.128;11.592;2022-12-07T04:53:18;5.40;99.90
2621;DHT22;1320;48.128;11.592;2022-12-07T04:55:44;5.30;99.90
2621;DHT22;1320;48.128;11.592;2022-12-07T04:58:10;5.20;99.90
2621;DHT22;1320;48.128;11.592;2022-12-07T05:00:36;5.20;99.90
2621;DHT22;1320;48.128;11.592;2022-12-07T05:03:01;5.20;99.90
2621;DHT22;1320;48.128;11.592;2022-12-07T05:05:27;5.10;99.90
2621;DHT22;1320;48.128;11.592;2022-12-07T05:07:53;5.10;99.90
2621;DHT22;1320;48.128;11.592;2022-12-07T05:10:19;5.00;99.90
2621;DHT22;1320;48.128;11.592;2022-12-07T05:12:45;4.90;99.90
2621;DHT22;1320;48.128;11.592;2022-12-07T05:15:11;4.90;99.90
2621;DHT22;1320;48.128;11.592;2022-12-07T05:17:37;4.90;99.90
2621;DHT22;1320;48.128;11.592;2022-12-07T05:20:04;4.80;99.90
2621;DHT22;1320;48.128;11.592;2022-12-07T05:22:30;4.80;99.90
2621;DHT22;1320;48.128;11.592;2022-12-07T05:24:55;4.80;99.90
2621;DHT22;1320;48.128;11.592;2022-12-07T05:27:21;4.80;99.90
2621;DHT22;1320;48.128;11.592;2022-12-07T05:29:47;4.80;99.90
2621;DHT22;1320;48.128;11.592;2022-12-07T05:32:13;4.90;99.90
2621;DHT22;1320;48.128;11.592;2022-12-07T05:34:38;4.90;99.90
2621;DHT22;1320;48.128;11.592;2022-12-07T05:37:04;4.90;99.90
2621;DHT22;1320;48.128;11.592;2022-12-07T05:39:29;5.00;99.90
2621;DHT22;1320;48.128;11.592;2022-12-07T05:41:55;5.00;99.90
2621;DHT22;1320;48.128;11.592;2022-12-07T05:44:45;5.00;99.90
2621;DHT22;1320;48.128;11.592;2022-12-07T05:47:12;5.00;99.90
2621;DHT22;1320;48.128;11.592;2022-12-07T05:49:39;5.00;99.90
2621;DHT22;1320;48.128;11.592;2022-12-07T05:52:05;4.90;99.90
2621;DHT22;1320;48.128;11.592;2022-12-07T05:54:30;4.90;99.90
2621;DHT22;1320;48.128;11.592;2022-12-07T05:56:56;4.90;99.90
2621;DHT22;1320;48.128;11.592;2022-12-07T05:59:22;4.90;99.90
2621;DHT22;1320;48.128;11.592;2022-12-07T06:01:49;4.80;99.90
2621;DHT22;1320;48.128;11.592;2022-12-07T06:04:15;4.80;99.90
2621;DHT22;1320;48.128;11.592;2022-12-07T06:06:41;4.80;99.90
2621;DHT22;1320;48.128;11.592;2022-12-07T06:09:06;4.80;99.90
2621;DHT22;1320;48.128;11.592;2022-12-07T06:11:32;4.80;99.90
2621;DHT22;1320;48.128;11.592;2022-12-07T06:14:16;4.80;99.90
2621;DHT22;1320;48.128;11.592;2022-12-07T06:16:42;4.80;99.90
2621;DHT22;1320;48.128;11.592;2022-12-07T06:19:07;4.80;99.90
2621;DHT22;1320;48.128;11.592;2022-12-07T06:21:33;4.80;99.90
2621;DHT22;1320;48.128;11.592;2022-12-07T06:23:59;4.70;99.90
2621;DHT22;1320;48.128;11.592;2022-12-07T06:26:25;4.80;99.90
2621;DHT22;1320;48.128;11.592;2022-12-07T06:28:50;4.80;99.90
2621;DHT22;1320;48.128;11.592;2022-12-07T06:31:16;4.80;99.90
2621;DHT22;1320;48.128;11.592;2022-12-07T06:33:42;4.80;99.90
2621;DHT22;1320;48.128;11.592;2022-12-07T06:36:08;4.80;99.90
2621;DHT22;1320;48.128;11.592;2022-12-07T06:38:34;4.80;99.90
2621;DHT22;1320;48.128;11.592;2022-12-07T06:40:59;4.80;99.90
2621;DHT22;1320;48.128;11.592;2022-12-07T06:43:25;4.80;99.90
2621;DHT22;1320;48.128;11.592;2022-12-07T06:45:51;4.80;99.90
2621;DHT22;1320;48.128;11.592;2022-12-07T06:48:16;4.80;99.90
2621;DHT22;1320;48.128;11.592;2022-12-07T06:50:45;4.80;99.90
2621;DHT22;1320;48.128;11.592;2022-12-07T06:53:10;4.80;99.90
2621;DHT22;1320;48.128;11.592;2022-12-07T06:55:36;4.90;99.90
2621;DHT22;1320;48.128;11.592;2022-12-07T06:58:02;4.90;99.90
2621;DHT22;1320;48.128;11.592;2022-12-07T07:00:28;4.90;99.90
2621;DHT22;1320;48.128;11.592;2022-12-07T07:02:54;4.80;99.90
2621;DHT22;1320;48.128;11.592;2022-12-07T07:05:20;4.90;99.90
2621;DHT22;1320;48.128;11.592;2022-12-07T07:07:53;4.90;99.90
2621;DHT22;1320;48.128;11.592;2022-12-07T07:10:18;4.80;99.90
2621;DHT22;1320;48.128;11.592;2022-12-07T07:12:44;4.80;99.90
2621;DHT22;1320;48.128;11.592;2022-12-07T07:15:10;4.80;99.90
2621;DHT22;1320;48.128;11.592;2022-12-07T07:17:37;4.70;99.90
2621;DHT22;1320;48.128;11.592;2022-12-07T07:20:03;4.70;99.90
2621;DHT22;1320;48.128;11.592;2022-12-07T07:22:29;4.70;99.90
2621;DHT22;1320;48.128;11.592;2022-12-07T07:24:57;4.70;99.90
2621;DHT22;1320;48.128;11.592;2022-12-07T07:27:23;4.70;99.90
2621;DHT22;1320;48.128;11.592;2022-12-07T07:29:48;4.70;99.90
2621;DHT22;1320;48.128;11.592;2022-12-07T07:32:14;4.70;99.90
2621;DHT22;1320;48.128;11.592;2022-12-07T07:34:40;4.80;99.90
2621;DHT22;1320;48.128;11.592;2022-12-07T07:37:05;4.70;99.90
2621;DHT22;1320;48.128;11.592;2022-12-07T07:39:31;4.70;99.90
2621;DHT22;1320;48.128;11.592;2022-12-07T07:41:57;4.70;99.90
2621;DHT22;1320;48.128;11.592;2022-12-07T07:44:22;4.80;99.90
2621;DHT22;1320;48.128;11.592;2022-12-07T07:46:48;4.80;99.90
2621;DHT22;1320;48.128;11.592;2022-12-07T07:49:13;4.80;99.90
2621;DHT22;1320;48.128;11.592;2022-12-07T07:51:39;4.90;99.90
2621;DHT22;1320;48.128;11.592;2022-12-07T07:54:05;4.90;99.90
2621;DHT22;1320;48.128;11.592;2022-12-07T07:56:30;4.80;99.90
2621;DHT22;1320;48.128;11.592;2022-12-07T07:58:56;4.80;99.90
2621;DHT22;1320;48.128;11.592;2022-12-07T08:01:22;4.80;99.90
2621;DHT22;1320;48.128;11.592;2022-12-07T08:03:48;4.80;99.90
2621;DHT22;1320;48.128;11.592;2022-12-07T08:06:14;4.80;99.90
2621;DHT22;1320;48.128;11.592;2022-12-07T08:08:40;4.80;99.90
2621;DHT22;1320;48.128;11.592;2022-12-07T08:11:08;4.80;99.90
2621;DHT22;1320;48.128;11.592;2022-12-07T08:13:34;4.80;99.90
2621;DHT22;1320;48.128;11.592;2022-12-07T08:16:04;4.80;99.90
2621;DHT22;1320;48.128;11.592;2022-12-07T08:18:30;4.80;99.90
2621;DHT22;1320;48.128;11.592;2022-12-07T08:21:00;4.80;99.90
2621;DHT22;1320;48.128;11.592;2022-12-07T08:23:28;4.80;99.90
2621;DHT22;1320;48.128;11.592;2022-12-07T08:25:54;4.80;99.90
2621;DHT22;1320;48.128;11.592;2022-12-07T08:28:20;4.80;99.90
2621;DHT22;1320;48.128;11.592;2022-12-07T08:30:46;4.80;99.90
2621;DHT22;1320;48.128;11.592;2022-12-07T08:33:11;4.90;99.90
2621;DHT22;1320;48.128;11.592;2022-12-07T08:35:37;4.90;99.90
2621;DHT22;1320;48.128;11.592;2022-12-07T08:38:04;4.90;99.90
2621;DHT22;1320;48.128;11.592;2022-12-07T08:40:30;4.90;99.90
2621;DHT22;1320;48.128;11.592;2022-12-07T08:42:55;4.90;99.90
2621;DHT22;1320;48.128;11.592;2022-12-07T08:45:22;5.00;99.90
2621;DHT22;1320;48.128;11.592;2022-12-07T08:47:52;4.90;99.90
2621;DHT22;1320;48.128;11.592;2022-12-07T08:50:21;5.00;99.90
2621;DHT22;1320;48.128;11.592;2022-12-07T08:52:51;5.00;99.90
2621;DHT22;1320;48.128;11.592;2022-12-07T08:55:18;5.00;99.90
2621;DHT22;1320;48.128;11.592;2022-12-07T08:57:44;5.10;99.90
2621;DHT22;1320;48.128;11.592;2022-12-07T09:00:11;5.10;99.90
2621;DHT22;1320;48.128;11.592;2022-12-07T09:02:37;5.20;99.90
2621;DHT22;1320;48.128;11.592;2022-12-07T09:05:03;5.20;99.90
2621;DHT22;1320;48.128;11.592;2022-12-07T09:07:30;5.30;99.90
2621;DHT22;1320;48.128;11.592;2022-12-07T09:09:57;5.40;99.90
2621;DHT22;1320;48.128;11.592;2022-12-07T09:12:23;5.40;99.90
2621;DHT22;1320;48.128;11.592;2022-12-07T09:14:48;5.30;99.90
2621;DHT22;1320;48.128;11.592;2022-12-07T09:17:14;5.40;99.90
2621;DHT22;1320;48.128;11.592;2022-12-07T09:19:40;5.50;99.90
2621;DHT22;1320;48.128;11.592;2022-12-07T09:22:07;5.50;99.90
2621;DHT22;1320;48.128;11.592;2022-12-07T09:24:33;5.60;99.90
2621;DHT22;1320;48.128;11.592;2022-12-07T09:26:59;5.60;99.90
2621;DHT22;1320;48.128;11.592;2022-12-07T09:29:25;5.60;99.90
2621;DHT22;1320;48.128;11.592;2022-12-07T09:31:53;5.60;99.90
2621;DHT22;1320;48.128;11.592;2022-12-07T09:34:19;5.70;99.90
2621;DHT22;1320;48.128;11.592;2022-12-07T09:36:45;5.70;99.90
2621;DHT22;1320;48.128;11.592;2022-12-07T09:39:11;5.70;99.90
2621;DHT22;1320;48.128;11.592;2022-12-07T09:41:39;5.70;99.90
2621;DHT22;1320;48.128;11.592;2022-12-07T09:44:21;5.80;99.90
2621;DHT22;1320;48.128;11.592;2022-12-07T09:46:48;5.80;99.90
2621;DHT22;1320;48.128;11.592;2022-12-07T09:49:20;5.90;99.90
2621;DHT22;1320;48.128;11.592;2022-12-07T09:51:48;6.00;99.90
2621;DHT22;1320;48.128;11.592;2022-12-07T09:54:24;6.10;99.90
2621;DHT22;1320;48.128;11.592;2022-12-07T09:56:50;6.10;99.90
2621;DHT22;1320;48.128;11.592;2022-12-07T09:59:19;6.10;99.90
2621;DHT22;1320;48.128;11.592;2022-12-07T10:01:49;6.10;99.90
2621;DHT22;1320;48.128;11.592;2022-12-07T10:04:16;6.00;99.90
2621;DHT22;1320;48.128;11.592;2022-12-07T10:06:43;6.10;99.90
2621;DHT22;1320;48.128;11.592;2022-12-07T10:09:12;6.10;99.90
2621;DHT22;1320;48.128;11.592;2022-12-07T10:14:31;6.20;99.90
2621;DHT22;1320;48.128;11.592;2022-12-07T10:16:57;6.30;99.90
2621;DHT22;1320;48.128;11.592;2022-12-07T10:22:10;6.40;99.90
2621;DHT22;1320;48.128;11.592;2022-12-07T10:24:37;6.60;99.90
2621;DHT22;1320;48.128;11.592;2022-12-07T10:27:10;6.70;99.90
2621;DHT22;1320;48.128;11.592;2022-12-07T10:29:50;6.70;99.90
2621;DHT22;1320;48.128;11.592;2022-12-07T10:34:42;6.70;99.90
2621;DHT22;1320;48.128;11.592;2022-12-07T10:39:52;6.80;99.90
2621;DHT22;1320;48.128;11.592;2022-12-07T10:42:26;6.90;99.90
2621;DHT22;1320;48.128;11.592;2022-12-07T10:50:54;7.20;99.90
2621;DHT22;1320;48.128;11.592;2022-12-07T10:53:52;7.30;99.90
2621;DHT22;1320;48.128;11.592;2022-12-07T10:56:35;7.50;99.90
2621;DHT22;1320;48.128;11.592;2022-12-07T11:05:30;7.70;99.90
2621;DHT22;1320;48.128;11.592;2022-12-07T11:10:50;7.80;99.90
2621;DHT22;1320;48.128;11.592;2022-12-07T11:16:34;7.80;99.90
2621;DHT22;1320;48.128;11.592;2022-12-07T11:22:15;7.90;99.90
2621;DHT22;1320;48.128;11.592;2022-12-07T11:37:47;8.10;99.90
2621;DHT22;1320;48.128;11.592;2022-12-07T11:40:34;8.20;99.90
2621;DHT22;1320;48.128;11.592;2022-12-07T11:46:16;8.10;99.90
2621;DHT22;1320;48.128;11.592;2022-12-07T11:51:20;8.10;99.90
2621;DHT22;1320;48.128;11.592;2022-12-07T11:53:52;8.20;99.90
2621;DHT22;1320;48.128;11.592;2022-12-07T11:56:22;8.30;99.90
2621;DHT22;1320;48.128;11.592;2022-12-07T12:06:45;8.00;99.90
2621;DHT22;1320;48.128;11.592;2022-12-07T12:20:40;7.70;99.90
2621;DHT22;1320;48.128;11.592;2022-12-07T12:25:58;7.60;99.90
2621;DHT22;1320;48.128;11.592;2022-12-07T12:28:32;7.60;99.90
2621;DHT22;1320;48.128;11.592;2022-12-07T12:34:04;7.50;99.90
2621;DHT22;1320;48.128;11.592;2022-12-07T12:39:13;7.40;99.90
2621;DHT22;1320;48.128;11.592;2022-12-07T12:51:50;7.60;99.90
2621;DHT22;1320;48.128;11.592;2022-12-07T12:54:31;7.60;99.90
2621;DHT22;1320;48.128;11.592;2022-12-07T12:57:11;7.50;99.90
2621;DHT22;1320;48.128;11.592;2022-12-07T12:59:55;7.50;99.90
2621;DHT22;1320;48.128;11.592;2022-12-07T13:02:35;7.50;99.90
2621;DHT22;1320;48.128;11.592;2022-12-07T13:07:53;7.60;99.90
2621;DHT22;1320;48.128;11.592;2022-12-07T13:15:39;7.30;99.90
2621;DHT22;1320;48.128;11.592;2022-12-07T13:20:59;7.50;99.90
2621;DHT22;1320;48.128;11.592;2022-12-07T13:23:27;7.50;99.90
2621;DHT22;1320;48.128;11.592;2022-12-07T13:28:48;7.70;99.90
2621;DHT22;1320;48.128;11.592;2022-12-07T13:33:52;7.70;99.90
2621;DHT22;1320;48.128;11.592;2022-12-07T13:36:25;7.80;99.90
2621;DHT22;1320;48.128;11.592;2022-12-07T13:38:58;7.70;99.90
2621;DHT22;1320;48.128;11.592;2022-12-07T13:41:28;7.80;99.90
2621;DHT22;1320;48.128;11.592;2022-12-07T13:44:15;7.70;99.90
2621;DHT22;1320;48.128;11.592;2022-12-07T13:49:30;7.60;99.90
2621;DHT22;1320;48.128;11.592;2022-12-07T13:54:54;7.40;99.90
2621;DHT22;1320;48.128;11.592;2022-12-07T13:57:21;7.40;99.90
2621;DHT22;1320;48.128;11.592;2022-12-07T13:59:47;7.40;99.90
2621;DHT22;1320;48.128;11.592;2022-12-07T14:02:25;7.40;99.90
2621;DHT22;1320;48.128;11.592;2022-12-07T14:04:51;7.30;99.90
2621;DHT22;1320;48.128;11.592;2022-12-07T14:07:27;7.30;99.90
2621;DHT22;1320;48.128;11.592;2022-12-07T14:09:58;7.30;99.90
2621;DHT22;1320;48.128;11.592;2022-12-07T14:12:25;7.20;99.90
2621;DHT22;1320;48.128;11.592;2022-12-07T14:14:52;7.20;99.90
2621;DHT22;1320;48.128;11.592;2022-12-07T14:17:22;7.20;99.90
2621;DHT22;1320;48.128;11.592;2022-12-07T14:19:49;7.10;99.90
2621;DHT22;1320;48.128;11.592;2022-12-07T14:22:29;7.10;99.90
2621;DHT22;1320;48.128;11.592;2022-12-07T14:27:56;7.10;99.90
2621;DHT22;1320;48.128;11.592;2022-12-07T14:30:25;6.90;99.90
2621;DHT22;1320;48.128;11.592;2022-12-07T14:33:00;6.90;99.90
2621;DHT22;1320;48.128;11.592;2022-12-07T14:35:26;6.90;99.90
2621;DHT22;1320;48.128;11.592;2022-12-07T14:37:52;6.90;99.90
2621;DHT22;1320;48.128;11.592;2022-12-07T14:40:21;6.90;99.90
2621;DHT22;1320;48.128;11.592;2022-12-07T14:45:24;7.00;99.90
2621;DHT22;1320;48.128;11.592;2022-12-07T14:47:49;7.00;99.90
2621;DHT22;1320;48.128;11.592;2022-12-07T14:50:18;7.00;99.90
2621;DHT22;1320;48.128;11.592;2022-12-07T14:52:48;7.10;99.90
2621;DHT22;1320;48.128;11.592;2022-12-07T14:55:23;7.10;99.90
2621;DHT22;1320;48.128;11.592;2022-12-07T14:57:49;7.00;99.90
2621;DHT22;1320;48.128;11.592;2022-12-07T15:00:16;6.90;99.90
2621;DHT22;1320;48.128;11.592;2022-12-07T15:02:45;6.90;99.90
2621;DHT22;1320;48.128;11.592;2022-12-07T15:05:11;6.80;99.90
2621;DHT22;1320;48.128;11.592;2022-12-07T15:07:37;6.80;99.90
2621;DHT22;1320;48.128;11.592;2022-12-07T15:10:03;6.70;99.90
2621;DHT22;1320;48.128;11.592;2022-12-07T15:12:29;6.60;99.90
2621;DHT22;1320;48.128;11.592;2022-12-07T15:14:55;6.50;99.90
2621;DHT22;1320;48.128;11.592;2022-12-07T15:17:21;6.50;99.90
2621;DHT22;1320;48.128;11.592;2022-12-07T15:19:46;6.40;99.90
2621;DHT22;1320;48.128;11.592;2022-12-07T15:22:12;6.30;99.90
2621;DHT22;1320;48.128;11.592;2022-12-07T15:24:38;6.30;99.90
2621;DHT22;1320;48.128;11.592;2022-12-07T15:27:04;6.30;99.90
2621;DHT22;1320;48.128;11.592;2022-12-07T15:29:29;6.30;99.90
2621;DHT22;1320;48.128;11.592;2022-12-07T15:31:55;6.30;99.90
2621;DHT22;1320;48.128;11.592;2022-12-07T15:34:22;6.30;99.90
2621;DHT22;1320;48.128;11.592;2022-12-07T15:36:48;6.20;99.90
2621;DHT22;1320;48.128;11.592;2022-12-07T15:39:14;6.20;99.90
2621;DHT22;1320;48.128;11.592;2022-12-07T15:41:39;6.10;99.90
2621;DHT22;1320;48.128;11.592;2022-12-07T15:44:05;6.00;99.90
2621;DHT22;1320;48.128;11.592;2022-12-07T15:46:50;6.00;99.90
2621;DHT22;1320;48.128;11.592;2022-12-07T15:49:17;5.90;99.90
2621;DHT22;1320;48.128;11.592;2022-12-07T15:51:44;5.90;99.90
2621;DHT22;1320;48.128;11.592;2022-12-07T15:54:23;5.90;99.90
2621;DHT22;1320;48.128;11.592;2022-12-07T15:56:49;6.00;99.90
2621;DHT22;1320;48.128;11.592;2022-12-07T15:59:15;5.90;99.90
2621;DHT22;1320;48.128;11.592;2022-12-07T16:01:41;6.00;99.90
2621;DHT22;1320;48.128;11.592;2022-12-07T16:04:07;6.00;99.90
2621;DHT22;1320;48.128;11.592;2022-12-07T16:06:33;5.90;99.90
2621;DHT22;1320;48.128;11.592;2022-12-07T16:08:58;5.90;99.90
2621;DHT22;1320;48.128;11.592;2022-12-07T16:11:24;5.90;99.90
2621;DHT22;1320;48.128;11.592;2022-12-07T16:13:50;5.90;99.90
2621;DHT22;1320;48.128;11.592;2022-12-07T16:16:18;5.90;99.90
2621;DHT22;1320;48.128;11.592;2022-12-07T16:18:45;5.90;99.90
2621;DHT22;1320;48.128;11.592;2022-12-07T16:21:12;5.90;99.90
2621;DHT22;1320;48.128;11.592;2022-12-07T16:23:38;5.90;99.90
2621;DHT22;1320;48.128;11.592;2022-12-07T16:26:05;5.90;99.90
2621;DHT22;1320;48.128;11.592;2022-12-07T16:28:31;5.80;99.90
2621;DHT22;1320;48.128;11.592;2022-12-07T16:31:17;5.70;99.90
2621;DHT22;1320;48.128;11.592;2022-12-07T16:33:44;5.70;99.90
2621;DHT22;1320;48.128;11.592;2022-12-07T16:36:11;5.70;99.90
2621;DHT22;1320;48.128;11.592;2022-12-07T16:38:38;5.80;99.90
2621;DHT22;1320;48.128;11.592;2022-12-07T16:41:05;5.70;99.90
2621;DHT22;1320;48.128;11.592;2022-12-07T16:43:32;5.70;99.90
2621;DHT22;1320;48.128;11.592;2022-12-07T16:45:58;5.70;99.90
2621;DHT22;1320;48.128;11.592;2022-12-07T16:48:26;5.60;99.90
2621;DHT22;1320;48.128;11.592;2022-12-07T16:50:52;5.60;99.90
2621;DHT22;1320;48.128;11.592;2022-12-07T16:53:19;5.60;99.90
2621;DHT22;1320;48.128;11.592;2022-12-07T16:55:46;5.60;99.90
2621;DHT22;1320;48.128;11.592;2022-12-07T16:58:13;5.60;99.90
2621;DHT22;1320;48.128;11.592;2022-12-07T17:00:40;5.60;99.90
2621;DHT22;1320;48.128;11.592;2022-12-07T17:03:06;5.50;99.90
2621;DHT22;1320;48.128;11.592;2022-12-07T17:05:31;5.50;99.90
2621;DHT22;1320;48.128;11.592;2022-12-07T17:07:58;5.50;99.90
2621;DHT22;1320;48.128;11.592;2022-12-07T17:10:24;5.40;99.90
2621;DHT22;1320;48.128;11.592;2022-12-07T17:12:51;5.40;99.90
2621;DHT22;1320;48.128;11.592;2022-12-07T17:15:17;5.40;99.90
2621;DHT22;1320;48.128;11.592;2022-12-07T17:17:53;5.40;99.90
2621;DHT22;1320;48.128;11.592;2022-12-07T17:20:21;5.40;99.90
2621;DHT22;1320;48.128;11.592;2022-12-07T17:22:48;5.40;99.90
2621;DHT22;1320;48.128;11.592;2022-12-07T17:25:13;5.50;99.90
2621;DHT22;1320;48.128;11.592;2022-12-07T17:27:39;5.50;99.90
2621;DHT22;1320;48.128;11.592;2022-12-07T17:30:06;5.50;99.90
2621;DHT22;1320;48.128;11.592;2022-12-07T17:32:32;5.50;99.90
2621;DHT22;1320;48.128;11.592;2022-12-07T17:34:58;5.50;99.90
2621;DHT22;1320;48.128;11.592;2022-12-07T17:37:25;5.50;99.90
2621;DHT22;1320;48.128;11.592;2022-12-07T17:39:51;5.40;99.90
2621;DHT22;1320;48.128;11.592;2022-12-07T17:42:17;5.30;99.90
2621;DHT22;1320;48.128;11.592;2022-12-07T17:45:09;5.30;99.90
2621;DHT22;1320;48.128;11.592;2022-12-07T17:47:38;5.30;99.90
2621;DHT22;1320;48.128;11.592;2022-12-07T17:50:06;5.20;99.90
2621;DHT22;1320;48.128;11.592;2022-12-07T17:52:32;5.10;99.90
2621;DHT22;1320;48.128;11.592;2022-12-07T17:55:16;5.10;99.90
2621;DHT22;1320;48.128;11.592;2022-12-07T17:57:42;5.00;99.90
2621;DHT22;1320;48.128;11.592;2022-12-07T18:00:08;5.10;99.90
2621;DHT22;1320;48.128;11.592;2022-12-07T18:02:35;5.00;99.90
2621;DHT22;1320;48.128;11.592;2022-12-07T18:05:01;5.00;99.90
2621;DHT22;1320;48.128;11.592;2022-12-07T18:07:26;5.00;99.90
2621;DHT22;1320;48.128;11.592;2022-12-07T18:09:52;5.00;99.90
2621;DHT22;1320;48.128;11.592;2022-12-07T18:12:17;4.90;99.90
2621;DHT22;1320;48.128;11.592;2022-12-07T18:14:43;4.90;99.90
2621;DHT22;1320;48.128;11.592;2022-12-07T18:17:09;4.90;99.90
2621;DHT22;1320;48.128;11.592;2022-12-07T18:19:34;4.90;99.90
2621;DHT22;1320;48.128;11.592;2022-12-07T18:22:04;4.90;99.90
2621;DHT22;1320;48.128;11.592;2022-12-07T18:24:30;4.90;99.90
2621;DHT22;1320;48.128;11.592;2022-12-07T18:26:56;4.90;99.90
2621;DHT22;1320;48.128;11.592;2022-12-07T18:29:22;4.90;99.90
2621;DHT22;1320;48.128;11.592;2022-12-07T18:31:47;4.80;99.90
2621;DHT22;1320;48.128;11.592;2022-12-07T18:34:16;4.90;99.90